TVL196 LHBP-LBSF
Flight info
| Callsign | TVL196 |
|---|---|
| Flight time | 1h 1m |
| Altitude | 33000 |
| Route | FAHAZ DCT KEROP DCT TISAK DCT RAVAK DCT NISVA |
| Aircraft | B738/M-SDE2E3FGHIRWXY/LB1 |
Departure
| Time | 2026-05-04 17:50 |
|---|---|
| Airport | Budapest Liszt Ferenc International Airport (LHBP) |
Arrival
| Time | 2026-05-04 18:51 |
|---|---|
| Airport | Sofia Airport (LBSF) |
| Time | Latitude | Longitude | Altitude | Speed | Heading |
|---|---|---|---|---|---|
| 2026-05-04 17:21 | 47.43651 | 19.25952 | 475 ft | 0 kts | 313° |
| 2026-05-04 17:42 | 47.43647 | 19.25958 | 475 ft | 2 kts | 313° |
| 2026-05-04 17:42 | 47.43636 | 19.25974 | 475 ft | 2 kts | 329° |
| 2026-05-04 17:42 | 47.43621 | 19.25981 | 475 ft | 2 kts | 354° |
| 2026-05-04 17:42 | 47.43607 | 19.25980 | 475 ft | 2 kts | 19° |
| 2026-05-04 17:43 | 47.43595 | 19.25971 | 475 ft | 0 kts | 39° |
| 2026-05-04 17:43 | 47.43590 | 19.25965 | 475 ft | 1 kts | 42° |
| 2026-05-04 17:43 | 47.43590 | 19.25964 | 475 ft | 0 kts | 42° |
| 2026-05-04 17:45 | 47.43608 | 19.25988 | 475 ft | 7 kts | 43° |
| 2026-05-04 17:45 | 47.43670 | 19.26040 | 475 ft | 12 kts | 353° |
| 2026-05-04 17:45 | 47.43741 | 19.25971 | 476 ft | 10 kts | 339° |
| 2026-05-04 17:45 | 47.43796 | 19.25996 | 477 ft | 7 kts | 39° |
| 2026-05-04 17:46 | 47.43838 | 19.26051 | 478 ft | 8 kts | 42° |
| 2026-05-04 17:46 | 47.43899 | 19.26133 | 478 ft | 15 kts | 43° |
| 2026-05-04 17:46 | 47.43981 | 19.26244 | 478 ft | 4 kts | 42° |
| 2026-05-04 17:46 | 47.43984 | 19.26248 | 478 ft | 1 kts | 42° |
| 2026-05-04 17:47 | 47.43990 | 19.26257 | 478 ft | 0 kts | 42° |
| 2026-05-04 17:47 | 47.43991 | 19.26257 | 478 ft | 0 kts | 42° |
| 2026-05-04 17:48 | 47.43991 | 19.26258 | 478 ft | 0 kts | 42° |
| 2026-05-04 17:49 | 47.44038 | 19.26327 | 479 ft | 15 kts | 51° |
| 2026-05-04 17:49 | 47.44059 | 19.26518 | 478 ft | 30 kts | 116° |
| 2026-05-04 17:49 | 47.43733 | 19.27063 | 466 ft | 111 kts | 133° |
| 2026-05-04 17:49 | 47.43048 | 19.28182 | 495 ft | 174 kts | 131° |
| 2026-05-04 17:50 | 47.42310 | 19.29614 | 1244 ft | 185 kts | 127° |
| 2026-05-04 17:50 | 47.41657 | 19.31280 | 2012 ft | 192 kts | 121° |
| 2026-05-04 17:50 | 47.40951 | 19.33014 | 2592 ft | 205 kts | 126° |
| 2026-05-04 17:50 | 47.40161 | 19.34858 | 3121 ft | 224 kts | 123° |
| 2026-05-04 17:51 | 47.39354 | 19.36911 | 3766 ft | 240 kts | 121° |
| 2026-05-04 17:51 | 47.38541 | 19.39051 | 4685 ft | 244 kts | 122° |
| 2026-05-04 17:51 | 47.37412 | 19.40932 | 5279 ft | 256 kts | 148° |
| 2026-05-04 17:51 | 47.35705 | 19.41804 | 5994 ft | 266 kts | 170° |
| 2026-05-04 17:52 | 47.33859 | 19.42037 | 6726 ft | 276 kts | 183° |
| 2026-05-04 17:52 | 47.32008 | 19.41204 | 6976 ft | 283 kts | 212° |
| 2026-05-04 17:52 | 47.30677 | 19.39020 | 7424 ft | 293 kts | 239° |
| 2026-05-04 17:52 | 47.29787 | 19.36457 | 8558 ft | 285 kts | 243° |
| 2026-05-04 17:53 | 47.28945 | 19.33835 | 9444 ft | 286 kts | 244° |
| 2026-05-04 17:53 | 47.28064 | 19.31209 | 10254 ft | 290 kts | 236° |
| 2026-05-04 17:53 | 47.26596 | 19.29154 | 10748 ft | 304 kts | 207° |
| 2026-05-04 17:53 | 47.24519 | 19.28410 | 11199 ft | 319 kts | 178° |
| 2026-05-04 17:54 | 47.22328 | 19.29069 | 11648 ft | 334 kts | 163° |
| 2026-05-04 17:54 | 47.20036 | 19.30063 | 12104 ft | 350 kts | 163° |
| 2026-05-04 17:54 | 47.17666 | 19.31035 | 12720 ft | 359 kts | 164° |
| 2026-05-04 17:54 | 47.15260 | 19.31996 | 13466 ft | 364 kts | 164° |
| 2026-05-04 17:55 | 47.12788 | 19.32974 | 14176 ft | 369 kts | 164° |
| 2026-05-04 17:55 | 47.10303 | 19.33956 | 14881 ft | 373 kts | 164° |
| 2026-05-04 17:55 | 47.07804 | 19.34941 | 15542 ft | 379 kts | 164° |
| 2026-05-04 17:55 | 47.05260 | 19.35943 | 16195 ft | 384 kts | 164° |
| 2026-05-04 17:56 | 47.02676 | 19.36962 | 16844 ft | 389 kts | 164° |
| 2026-05-04 17:56 | 47.00029 | 19.38005 | 17527 ft | 393 kts | 164° |
| 2026-05-04 17:56 | 46.97390 | 19.39045 | 18133 ft | 398 kts | 164° |
| 2026-05-04 17:56 | 46.94719 | 19.40095 | 18771 ft | 401 kts | 164° |
| 2026-05-04 17:57 | 46.92037 | 19.41148 | 19417 ft | 405 kts | 164° |
| 2026-05-04 17:57 | 46.89291 | 19.42223 | 20012 ft | 409 kts | 164° |
| 2026-05-04 17:57 | 46.86552 | 19.43295 | 20635 ft | 412 kts | 164° |
| 2026-05-04 17:57 | 46.83790 | 19.44375 | 21226 ft | 416 kts | 164° |
| 2026-05-04 17:58 | 46.80969 | 19.45477 | 21761 ft | 420 kts | 164° |
| 2026-05-04 17:58 | 46.78146 | 19.46579 | 22332 ft | 423 kts | 164° |
| 2026-05-04 17:58 | 46.75287 | 19.47694 | 22841 ft | 427 kts | 164° |
| 2026-05-04 17:58 | 46.72442 | 19.48802 | 23370 ft | 431 kts | 164° |
| 2026-05-04 17:59 | 46.69534 | 19.49933 | 23885 ft | 435 kts | 164° |
| 2026-05-04 17:59 | 46.66608 | 19.51070 | 24371 ft | 438 kts | 164° |
| 2026-05-04 17:59 | 46.60675 | 19.53373 | 25315 ft | 445 kts | 164° |
| 2026-05-04 18:00 | 46.57688 | 19.54530 | 25778 ft | 448 kts | 164° |
| 2026-05-04 18:00 | 46.54676 | 19.55695 | 26208 ft | 452 kts | 164° |
| 2026-05-04 18:00 | 46.51615 | 19.56879 | 26615 ft | 456 kts | 164° |
| 2026-05-04 18:00 | 46.48539 | 19.58067 | 26998 ft | 460 kts | 164° |
| 2026-05-04 18:01 | 46.45477 | 19.59248 | 27392 ft | 463 kts | 164° |
| 2026-05-04 18:01 | 46.42333 | 19.60459 | 27770 ft | 467 kts | 164° |
| 2026-05-04 18:01 | 46.39218 | 19.61658 | 28354 ft | 465 kts | 164° |
| 2026-05-04 18:02 | 46.32997 | 19.64044 | 29410 ft | 464 kts | 164° |
| 2026-05-04 18:02 | 46.29842 | 19.65253 | 29846 ft | 465 kts | 165° |
| 2026-05-04 18:02 | 46.26697 | 19.66458 | 30315 ft | 465 kts | 165° |
| 2026-05-04 18:02 | 46.23645 | 19.67626 | 30828 ft | 463 kts | 165° |
| 2026-05-04 18:03 | 46.20510 | 19.68882 | 31041 ft | 469 kts | 162° |
| 2026-05-04 18:03 | 46.17467 | 19.70519 | 31053 ft | 470 kts | 156° |
| 2026-05-04 18:03 | 46.11565 | 19.74445 | 31060 ft | 462 kts | 153° |
| 2026-05-04 18:04 | 46.08701 | 19.76453 | 31269 ft | 465 kts | 153° |
| 2026-05-04 18:04 | 46.05783 | 19.78508 | 31832 ft | 462 kts | 153° |
| 2026-05-04 18:04 | 46.00069 | 19.82529 | 32793 ft | 459 kts | 153° |
| 2026-05-04 18:05 | 45.97216 | 19.84532 | 33057 ft | 461 kts | 153° |
| 2026-05-04 18:05 | 45.91405 | 19.88596 | 33069 ft | 463 kts | 153° |
| 2026-05-04 18:06 | 45.82832 | 19.94582 | 33066 ft | 458 kts | 153° |
| 2026-05-04 18:06 | 45.77101 | 19.98574 | 33070 ft | 461 kts | 153° |
| 2026-05-04 18:07 | 45.71332 | 20.02581 | 33060 ft | 459 kts | 153° |
| 2026-05-04 18:07 | 45.65588 | 20.06557 | 33052 ft | 461 kts | 153° |
| 2026-05-04 18:08 | 45.59830 | 20.10538 | 33049 ft | 460 kts | 153° |
| 2026-05-04 18:08 | 45.54083 | 20.14503 | 33050 ft | 462 kts | 153° |
| 2026-05-04 18:09 | 45.42532 | 20.22433 | 33048 ft | 460 kts | 153° |
| 2026-05-04 18:10 | 45.36948 | 20.26770 | 33046 ft | 459 kts | 147° |
| 2026-05-04 18:10 | 45.31465 | 20.31447 | 33047 ft | 460 kts | 147° |
| 2026-05-04 18:11 | 45.25969 | 20.36099 | 33049 ft | 461 kts | 147° |
| 2026-05-04 18:11 | 45.20459 | 20.40708 | 33051 ft | 460 kts | 147° |
| 2026-05-04 18:12 | 45.14972 | 20.45266 | 33050 ft | 461 kts | 147° |
| 2026-05-04 18:12 | 45.09435 | 20.49843 | 33059 ft | 460 kts | 147° |
| 2026-05-04 18:13 | 45.03919 | 20.54387 | 33061 ft | 459 kts | 147° |
| 2026-05-04 18:14 | 44.95655 | 20.61178 | 33063 ft | 460 kts | 147° |
| 2026-05-04 18:14 | 44.90132 | 20.65700 | 33068 ft | 460 kts | 148° |
| 2026-05-04 18:15 | 44.85014 | 20.70989 | 33068 ft | 458 kts | 137° |
| 2026-05-04 18:15 | 44.80177 | 20.76813 | 33069 ft | 456 kts | 137° |
| 2026-05-04 18:16 | 44.75361 | 20.82541 | 33068 ft | 456 kts | 137° |
| 2026-05-04 18:16 | 44.70509 | 20.88205 | 33068 ft | 457 kts | 138° |
| 2026-05-04 18:17 | 44.63139 | 20.96703 | 33073 ft | 457 kts | 138° |
| 2026-05-04 18:18 | 44.55798 | 21.05099 | 33076 ft | 456 kts | 138° |
| 2026-05-04 18:18 | 44.50897 | 21.10686 | 33075 ft | 455 kts | 138° |
| 2026-05-04 18:19 | 44.43544 | 21.19046 | 33083 ft | 455 kts | 138° |
| 2026-05-04 18:19 | 44.38642 | 21.24606 | 33084 ft | 456 kts | 138° |
| 2026-05-04 18:20 | 44.33695 | 21.30200 | 33084 ft | 456 kts | 138° |
| 2026-05-04 18:20 | 44.28818 | 21.35699 | 33087 ft | 454 kts | 138° |
| 2026-05-04 18:21 | 44.23894 | 21.41232 | 33091 ft | 453 kts | 138° |
| 2026-05-04 18:21 | 44.18996 | 21.46732 | 33091 ft | 455 kts | 138° |
| 2026-05-04 18:22 | 44.14096 | 21.52222 | 33094 ft | 455 kts | 138° |
| 2026-05-04 18:22 | 44.09169 | 21.57735 | 33099 ft | 453 kts | 138° |
| 2026-05-04 18:23 | 44.04270 | 21.63193 | 33104 ft | 454 kts | 139° |
| 2026-05-04 18:23 | 43.99338 | 21.68682 | 33117 ft | 453 kts | 139° |
| 2026-05-04 18:24 | 43.94430 | 21.74138 | 33121 ft | 453 kts | 139° |
| 2026-05-04 18:24 | 43.89538 | 21.79566 | 33123 ft | 453 kts | 139° |
| 2026-05-04 18:25 | 43.84632 | 21.84994 | 33116 ft | 452 kts | 139° |
| 2026-05-04 18:25 | 43.79717 | 21.90413 | 33113 ft | 453 kts | 139° |
| 2026-05-04 18:26 | 43.74793 | 21.95833 | 33095 ft | 452 kts | 140° |
| 2026-05-04 18:26 | 43.72357 | 21.98506 | 32660 ft | 445 kts | 140° |
| 2026-05-04 18:26 | 43.69937 | 22.01161 | 31873 ft | 444 kts | 140° |
| 2026-05-04 18:27 | 43.67545 | 22.03785 | 31282 ft | 437 kts | 141° |
| 2026-05-04 18:27 | 43.65199 | 22.06357 | 30586 ft | 433 kts | 141° |
| 2026-05-04 18:27 | 43.62864 | 22.08912 | 29913 ft | 428 kts | 141° |
| 2026-05-04 18:27 | 43.60533 | 22.11456 | 29208 ft | 423 kts | 141° |
| 2026-05-04 18:28 | 43.58272 | 22.13923 | 28552 ft | 417 kts | 142° |
| 2026-05-04 18:28 | 43.56025 | 22.16379 | 28146 ft | 405 kts | 142° |
| 2026-05-04 18:28 | 43.53828 | 22.18775 | 27247 ft | 406 kts | 142° |
| 2026-05-04 18:28 | 43.51625 | 22.21177 | 26544 ft | 402 kts | 142° |
| 2026-05-04 18:29 | 43.49461 | 22.23540 | 25992 ft | 394 kts | 142° |
| 2026-05-04 18:29 | 43.47347 | 22.25844 | 25267 ft | 391 kts | 141° |
| 2026-05-04 18:29 | 43.45223 | 22.28154 | 24511 ft | 389 kts | 141° |
| 2026-05-04 18:29 | 43.43132 | 22.30426 | 23820 ft | 385 kts | 141° |
| 2026-05-04 18:30 | 43.38976 | 22.34929 | 22508 ft | 377 kts | 140° |
| 2026-05-04 18:30 | 43.36915 | 22.37158 | 21868 ft | 373 kts | 140° |
| 2026-05-04 18:30 | 43.34896 | 22.39341 | 21243 ft | 369 kts | 140° |
| 2026-05-04 18:31 | 43.32910 | 22.41487 | 20610 ft | 366 kts | 139° |
| 2026-05-04 18:31 | 43.30924 | 22.43632 | 19991 ft | 362 kts | 139° |
| 2026-05-04 18:31 | 43.28949 | 22.45761 | 19370 ft | 358 kts | 139° |
| 2026-05-04 18:31 | 43.27020 | 22.47838 | 18747 ft | 355 kts | 138° |
| 2026-05-04 18:32 | 43.25091 | 22.49918 | 18137 ft | 351 kts | 138° |
| 2026-05-04 18:32 | 43.23186 | 22.51975 | 17543 ft | 347 kts | 138° |
| 2026-05-04 18:32 | 43.21310 | 22.53999 | 16950 ft | 343 kts | 138° |
| 2026-05-04 18:32 | 43.19460 | 22.55989 | 16383 ft | 338 kts | 138° |
| 2026-05-04 18:33 | 43.17623 | 22.57961 | 15805 ft | 335 kts | 138° |
| 2026-05-04 18:33 | 43.15822 | 22.59892 | 15239 ft | 331 kts | 137° |
| 2026-05-04 18:33 | 43.14012 | 22.61834 | 14659 ft | 327 kts | 137° |
| 2026-05-04 18:33 | 43.12243 | 22.63730 | 14093 ft | 323 kts | 137° |
| 2026-05-04 18:34 | 43.10480 | 22.65619 | 13526 ft | 320 kts | 138° |
| 2026-05-04 18:34 | 43.08762 | 22.67457 | 13175 ft | 311 kts | 138° |
| 2026-05-04 18:34 | 43.07075 | 22.69258 | 13137 ft | 304 kts | 137° |
| 2026-05-04 18:34 | 43.05404 | 22.71048 | 13132 ft | 313 kts | 138° |
| 2026-05-04 18:35 | 43.03690 | 22.72879 | 12982 ft | 311 kts | 138° |
| 2026-05-04 18:35 | 43.01994 | 22.74685 | 12359 ft | 312 kts | 138° |
| 2026-05-04 18:35 | 43.00287 | 22.76502 | 11713 ft | 312 kts | 138° |
| 2026-05-04 18:35 | 42.98578 | 22.78323 | 11128 ft | 310 kts | 138° |
| 2026-05-04 18:36 | 42.96976 | 22.80219 | 10554 ft | 305 kts | 130° |
| 2026-05-04 18:36 | 42.95588 | 22.82352 | 10130 ft | 299 kts | 126° |
| 2026-05-04 18:36 | 42.94268 | 22.84483 | 10036 ft | 293 kts | 126° |
| 2026-05-04 18:36 | 42.92947 | 22.86609 | 10025 ft | 296 kts | 126° |
| 2026-05-04 18:37 | 42.91586 | 22.88785 | 10026 ft | 300 kts | 126° |
| 2026-05-04 18:37 | 42.90235 | 22.90939 | 10024 ft | 301 kts | 127° |
| 2026-05-04 18:37 | 42.88866 | 22.93115 | 10023 ft | 301 kts | 127° |
| 2026-05-04 18:37 | 42.87511 | 22.95267 | 10021 ft | 301 kts | 127° |
| 2026-05-04 18:38 | 42.86153 | 22.97422 | 10024 ft | 301 kts | 127° |
| 2026-05-04 18:38 | 42.84795 | 22.99578 | 10025 ft | 301 kts | 127° |
| 2026-05-04 18:38 | 42.83423 | 23.01756 | 10024 ft | 300 kts | 127° |
| 2026-05-04 18:38 | 42.82073 | 23.03895 | 10023 ft | 300 kts | 127° |
| 2026-05-04 18:39 | 42.80715 | 23.06044 | 10022 ft | 300 kts | 127° |
| 2026-05-04 18:39 | 42.79342 | 23.08215 | 10021 ft | 300 kts | 126° |
| 2026-05-04 18:39 | 42.77992 | 23.10354 | 10019 ft | 300 kts | 126° |
| 2026-05-04 18:39 | 42.76636 | 23.12498 | 10018 ft | 300 kts | 126° |
| 2026-05-04 18:40 | 42.75265 | 23.14662 | 10017 ft | 300 kts | 126° |
| 2026-05-04 18:40 | 42.73906 | 23.16807 | 10014 ft | 301 kts | 126° |
| 2026-05-04 18:40 | 42.72538 | 23.18965 | 10013 ft | 301 kts | 126° |
| 2026-05-04 18:40 | 42.71178 | 23.21110 | 10012 ft | 301 kts | 126° |
| 2026-05-04 18:41 | 42.69812 | 23.23262 | 10010 ft | 300 kts | 126° |
| 2026-05-04 18:41 | 42.68450 | 23.25403 | 10013 ft | 300 kts | 126° |
| 2026-05-04 18:41 | 42.67099 | 23.27525 | 9884 ft | 293 kts | 126° |
| 2026-05-04 18:41 | 42.65804 | 23.29554 | 9641 ft | 281 kts | 126° |
| 2026-05-04 18:42 | 42.64527 | 23.31559 | 9115 ft | 281 kts | 126° |
| 2026-05-04 18:42 | 42.63256 | 23.33562 | 8584 ft | 280 kts | 126° |
| 2026-05-04 18:42 | 42.62116 | 23.35664 | 8051 ft | 275 kts | 114° |
| 2026-05-04 18:42 | 42.61510 | 23.38084 | 7520 ft | 269 kts | 95° |
| 2026-05-04 18:43 | 42.61324 | 23.40581 | 6979 ft | 268 kts | 91° |
| 2026-05-04 18:43 | 42.61186 | 23.43086 | 6445 ft | 269 kts | 91° |
| 2026-05-04 18:43 | 42.61037 | 23.45590 | 6066 ft | 263 kts | 91° |
| 2026-05-04 18:43 | 42.60892 | 23.47984 | 6010 ft | 248 kts | 91° |
| 2026-05-04 18:44 | 42.60754 | 23.50222 | 6013 ft | 229 kts | 91° |
| 2026-05-04 18:44 | 42.60668 | 23.51625 | 6014 ft | 218 kts | 91° |
| 2026-05-04 18:44 | 42.60506 | 23.54310 | 5958 ft | 209 kts | 91° |
| 2026-05-04 18:44 | 42.60387 | 23.56258 | 5569 ft | 213 kts | 91° |
| 2026-05-04 18:45 | 42.60263 | 23.58279 | 5181 ft | 214 kts | 91° |
| 2026-05-04 18:45 | 42.60149 | 23.60270 | 4825 ft | 213 kts | 88° |
| 2026-05-04 18:45 | 42.60369 | 23.62230 | 4453 ft | 209 kts | 64° |
| 2026-05-04 18:45 | 42.61173 | 23.63840 | 4113 ft | 205 kts | 42° |
| 2026-05-04 18:46 | 42.62300 | 23.64907 | 4000 ft | 190 kts | 21° |
| 2026-05-04 18:46 | 42.63543 | 23.65291 | 4013 ft | 180 kts | 4° |
| 2026-05-04 18:46 | 42.64800 | 23.65420 | 4013 ft | 183 kts | 4° |
| 2026-05-04 18:46 | 42.66068 | 23.65483 | 4009 ft | 184 kts | 353° |
| 2026-05-04 18:47 | 42.67241 | 23.64852 | 4011 ft | 185 kts | 323° |
| 2026-05-04 18:47 | 42.68042 | 23.63484 | 4008 ft | 187 kts | 291° |
| 2026-05-04 18:47 | 42.68267 | 23.61773 | 4012 ft | 183 kts | 281° |
| 2026-05-04 18:47 | 42.68437 | 23.60098 | 4013 ft | 173 kts | 280° |
| 2026-05-04 18:48 | 42.68583 | 23.58478 | 3866 ft | 174 kts | 279° |
| 2026-05-04 18:48 | 42.68707 | 23.56866 | 3638 ft | 173 kts | 278° |
| 2026-05-04 18:48 | 42.68811 | 23.55246 | 3401 ft | 167 kts | 277° |
| 2026-05-04 18:48 | 42.68903 | 23.53757 | 3230 ft | 152 kts | 277° |
| 2026-05-04 18:49 | 42.68991 | 23.52352 | 2969 ft | 145 kts | 277° |
| 2026-05-04 18:49 | 42.69074 | 23.51016 | 2796 ft | 141 kts | 277° |
| 2026-05-04 18:49 | 42.69158 | 23.49667 | 2605 ft | 145 kts | 277° |
| 2026-05-04 18:49 | 42.69241 | 23.48301 | 2409 ft | 145 kts | 276° |
| 2026-05-04 18:50 | 42.69326 | 23.46946 | 2219 ft | 143 kts | 276° |
| 2026-05-04 18:50 | 42.69407 | 23.45608 | 2032 ft | 143 kts | 276° |
| 2026-05-04 18:50 | 42.69497 | 23.44243 | 1822 ft | 145 kts | 275° |
| 2026-05-04 18:50 | 42.69575 | 23.42927 | 1743 ft | 125 kts | 274° |
| 2026-05-04 18:51 | 42.69626 | 23.42054 | 1750 ft | 61 kts | 275° |
| 2026-05-04 18:51 | 42.69609 | 23.41655 | 1749 ft | 37 kts | 250° |
| 2026-05-04 18:51 | 42.69560 | 23.41505 | 1751 ft | 0 kts | 246° |
| 2026-05-04 18:51 | 42.69559 | 23.41505 | 1750 ft | 0 kts | 246° |
| 2026-05-04 18:52 | 42.69558 | 23.41498 | 1750 ft | 4 kts | 246° |
| 2026-05-04 18:52 | 42.69527 | 23.41404 | 1752 ft | 14 kts | 246° |
| 2026-05-04 18:52 | 42.69492 | 23.41298 | 1753 ft | 11 kts | 246° |
| 2026-05-04 18:52 | 42.69440 | 23.41211 | 1753 ft | 13 kts | 205° |
| 2026-05-04 18:53 | 42.69344 | 23.41178 | 1753 ft | 15 kts | 194° |
| 2026-05-04 18:53 | 42.69244 | 23.41152 | 1755 ft | 13 kts | 191° |
| 2026-05-04 18:53 | 42.69144 | 23.41179 | 1756 ft | 17 kts | 163° |
| 2026-05-04 18:53 | 42.69039 | 23.41221 | 1755 ft | 11 kts | 174° |
| 2026-05-04 18:54 | 42.68992 | 23.41204 | 1755 ft | 1 kts | 189° |
| 2026-05-04 18:54 | 42.68959 | 23.41209 | 1755 ft | 10 kts | 161° |
| 2026-05-04 18:54 | 42.68937 | 23.41224 | 1755 ft | 0 kts | 146° |
| 2026-05-04 18:54 | 42.68928 | 23.41232 | 1754 ft | 0 kts | 145° |